Startpagina
METAR-TAF:

METAR-TAF

Vliegvelden :

Majuro, Majuro Atoll, Marshalleilanden

Marshall Islands International Airport

breedte: 07-04N, lengte: 171-17E, hoogte: 2 m

Actueel weer

Dit bericht is 29 minuten geleden gemaakt, om 01:55 UTC
Wind 11 kt uit het oostnoordoosten
Temperatuur 28°C
Vochtigheid 89%
Druk 1009 hPa
Zicht: 24.1 km
Weinig wolken op 1500 ft
Verspreide wolken op 5000 ft
Gebroken wolken op 12000 ft
Geheel bewolkt op 30000 ft

METAR: PKMJ 270155Z 06011KT 15SM FEW015 SCT050 BKN120 OVC300 28/26 A2981

Tijdstip: 14:24 (02:24 UTC)

Verwachting

Dit bericht is 3 uur en het 4 minuten geleden gemaakt, om 23:20 UTC
Verwachting geldig van 27 om 00 UTC tot 27 om 24 UTC
Wind 15 kt uit het noordoosten
Zicht: 10 km
Verspreide wolken op 1500 ft
Verspreide wolken op 5000 ft
Gebroken wolken op 30000 ft
buien in de omgeving

TAF: PKMJ 262320Z 2700/2724 05015KT P6SM VCSH SCT015 SCT050 BKN300

Waarnemingen en weersverwachtingen van meer dan 4000 vliegvelden (METAR en TAF).

De beschikbare stations zijn de gele en rode punten op de kaart.

Ga met uw muis naar het station om de naam te zien.

Klik dan om waarnemingen en weersverwachtingen te zien.

kaart wijzigen: klik op de groene knoppen met een zwart kruis om in te zoomen, op de groene knop met een streepje om uit te zoomen of op de groene pijlen voor aangrenzende kaarten.


METAR-TAF: